createdAt,value
2022-07-30T00:00:26.587Z,3.33
2022-07-30T00:02:56.062Z,3.33
2022-07-30T00:05:24.421Z,3.40
2022-07-30T00:07:52.854Z,3.17
2022-07-30T00:10:23.071Z,3.17
2022-07-30T00:12:51.662Z,3.70
2022-07-30T00:15:19.772Z,3.40
2022-07-30T00:17:49.226Z,4.03
2022-07-30T00:20:18.937Z,3.73
2022-07-30T00:22:47.677Z,3.40
2022-07-30T00:25:16.046Z,3.87
2022-07-30T00:27:45.469Z,3.50
2022-07-30T00:30:14.459Z,3.40
2022-07-30T00:32:42.613Z,3.90
2022-07-30T00:35:12.003Z,3.53
2022-07-30T00:37:41.857Z,3.80
2022-07-30T00:40:11.053Z,3.50
2022-07-30T00:42:40.972Z,3.87
2022-07-30T00:45:10.479Z,4.03
2022-07-30T00:47:39.298Z,4.40
2022-07-30T00:50:10.298Z,3.80
2022-07-30T00:52:39.404Z,3.70
2022-07-30T00:55:11.093Z,3.30
2022-07-30T00:57:39.638Z,3.67
2022-07-30T01:00:10.413Z,3.70
2022-07-30T01:02:38.846Z,4.07
2022-07-30T01:05:08.157Z,4.03
2022-07-30T01:07:36.368Z,4.50
2022-07-30T01:10:06.042Z,3.77
2022-07-30T01:12:35.971Z,4.07
2022-07-30T01:15:06.835Z,4.13
2022-07-30T01:17:35.754Z,3.83
2022-07-30T01:20:06.131Z,4.07
2022-07-30T01:22:46.748Z,4.20
2022-07-30T01:25:21.940Z,3.43
2022-07-30T01:27:54.848Z,4.30
2022-07-30T01:30:26.543Z,4.23
2022-07-30T01:32:57.272Z,5.33
2022-07-30T01:35:27.012Z,4.30
2022-07-30T01:37:56.770Z,4.50
2022-07-30T01:40:26.324Z,5.10
2022-07-30T01:42:58.522Z,4.37
2022-07-30T01:45:30.028Z,4.23
2022-07-30T01:48:01.724Z,4.10
2022-07-30T01:50:31.731Z,4.20
2022-07-30T01:53:01.058Z,4.67
2022-07-30T01:55:34.329Z,4.40
2022-07-30T01:58:05.632Z,4.17
2022-07-30T02:00:38.947Z,4.60
2022-07-30T02:03:08.881Z,4.50
2022-07-30T02:05:38.690Z,4.70
2022-07-30T02:08:12.198Z,4.50
2022-07-30T02:10:46.530Z,4.83
2022-07-30T02:13:21.990Z,5.00
2022-07-30T02:15:55.888Z,5.63
2022-07-30T02:18:32.095Z,4.90
2022-07-30T02:21:10.124Z,4.60
2022-07-30T02:23:42.261Z,5.17
2022-07-30T02:26:16.052Z,5.73
2022-07-30T02:28:49.211Z,5.93
2022-07-30T02:31:20.430Z,6.13
2022-07-30T02:33:51.517Z,6.10
2022-07-30T02:36:21.137Z,5.00
2022-07-30T02:38:51.458Z,5.10
2022-07-30T02:41:21.817Z,4.27
2022-07-30T02:43:53.256Z,4.40
2022-07-30T02:46:24.211Z,3.93
2022-07-30T02:48:54.531Z,4.07
2022-07-30T02:51:24.127Z,4.07
2022-07-30T02:53:54.511Z,3.77
2022-07-30T02:56:23.713Z,3.73
2022-07-30T02:58:54.369Z,3.70
2022-07-30T03:01:25.527Z,3.90
2022-07-30T03:03:54.734Z,3.80
2022-07-30T03:06:25.720Z,3.80
2022-07-30T03:08:55.908Z,3.70
2022-07-30T03:11:26.412Z,3.60
2022-07-30T03:13:56.583Z,3.30
2022-07-30T03:16:27.607Z,3.27
2022-07-30T03:19:02.411Z,3.23
2022-07-30T03:21:35.865Z,3.63
2022-07-30T03:24:06.253Z,3.20
2022-07-30T03:26:36.475Z,3.40
2022-07-30T03:29:07.611Z,3.20
2022-07-30T03:31:39.927Z,3.30
2022-07-30T03:34:08.650Z,3.10
2022-07-30T03:36:37.530Z,3.60
2022-07-30T03:39:06.284Z,3.57
2022-07-30T03:41:34.700Z,3.47
2022-07-30T03:44:03.272Z,3.43
2022-07-30T03:46:34.081Z,2.90
2022-07-30T03:49:02.500Z,2.80
2022-07-30T03:51:33.159Z,2.80
2022-07-30T03:54:02.716Z,3.47
2022-07-30T03:56:31.340Z,3.63
2022-07-30T03:58:59.551Z,2.90
2022-07-30T04:01:28.297Z,3.10
2022-07-30T04:04:05.171Z,2.90
2022-07-30T04:06:36.527Z,4.47
2022-07-30T04:09:04.778Z,3.87
2022-07-30T04:11:40.605Z,5.13
2022-07-30T04:14:10.391Z,3.70
2022-07-30T04:16:45.770Z,5.17
2022-07-30T04:19:20.862Z,4.87
2022-07-30T04:21:50.540Z,4.23
2022-07-30T04:24:21.070Z,4.93
2022-07-30T04:26:49.950Z,4.73
2022-07-30T04:29:24.022Z,4.63
2022-07-30T04:31:53.974Z,11.03
2022-07-30T04:34:23.426Z,8.37
2022-07-30T04:36:51.548Z,7.00
2022-07-30T04:39:19.702Z,6.23
2022-07-30T04:41:48.560Z,6.53
2022-07-30T04:44:18.721Z,7.50
2022-07-30T04:46:47.083Z,8.13
2022-07-30T04:49:17.583Z,4.93
2022-07-30T04:51:47.636Z,4.57
2022-07-30T04:54:17.092Z,4.70
2022-07-30T04:56:53.666Z,4.40
2022-07-30T04:59:29.174Z,5.47
2022-07-30T05:01:59.954Z,5.50
2022-07-30T05:04:30.085Z,6.10
2022-07-30T05:07:01.622Z,6.60
2022-07-30T05:09:31.036Z,5.87
2022-07-30T05:12:00.475Z,7.60
2022-07-30T05:14:29.725Z,7.47
2022-07-30T05:16:58.484Z,6.07
2022-07-30T05:19:26.900Z,6.87
2022-07-30T05:21:55.283Z,5.63
2022-07-30T05:24:24.777Z,6.43
2022-07-30T05:26:53.002Z,6.83
2022-07-30T05:29:21.119Z,8.30
2022-07-30T05:31:49.873Z,6.87
2022-07-30T05:34:18.196Z,6.93
2022-07-30T05:36:46.573Z,6.70
2022-07-30T05:39:16.328Z,5.97
2022-07-30T05:41:45.965Z,5.83
2022-07-30T05:44:14.092Z,6.40
2022-07-30T05:46:42.324Z,5.73
2022-07-30T05:49:10.586Z,6.57
2022-07-30T05:51:39.225Z,6.73
2022-07-30T05:54:07.590Z,6.10
2022-07-30T05:56:36.143Z,5.80
2022-07-30T05:59:05.657Z,6.10
2022-07-30T06:01:33.905Z,5.60
2022-07-30T06:04:02.109Z,5.30
2022-07-30T06:06:30.410Z,4.40
2022-07-30T06:08:58.516Z,5.97
2022-07-30T06:11:26.613Z,5.90
2022-07-30T06:13:54.757Z,5.27
2022-07-30T06:16:24.383Z,6.03
2022-07-30T06:18:52.528Z,6.43
2022-07-30T06:21:20.666Z,5.67
2022-07-30T06:23:48.841Z,6.93
2022-07-30T06:26:17.039Z,6.63
2022-07-30T06:28:45.165Z,6.40
2022-07-30T06:31:13.315Z,6.70
2022-07-30T06:33:43.221Z,6.53
2022-07-30T06:36:14.247Z,6.87
2022-07-30T06:38:42.661Z,6.83
2022-07-30T06:41:13.598Z,6.37
2022-07-30T06:43:41.820Z,6.40
2022-07-30T06:46:10.005Z,7.03
2022-07-30T06:48:38.565Z,6.50
2022-07-30T06:51:08.066Z,6.67
2022-07-30T06:53:42.875Z,6.83
2022-07-30T06:56:11.153Z,6.90
2022-07-30T06:58:39.319Z,5.47
2022-07-30T07:01:11.139Z,5.70
2022-07-30T07:03:40.698Z,6.00
2022-07-30T07:06:10.556Z,5.67
2022-07-30T07:08:39.298Z,4.90
2022-07-30T07:11:07.563Z,5.73
2022-07-30T07:13:35.726Z,5.73
2022-07-30T07:16:04.231Z,5.20
2022-07-30T07:18:32.514Z,6.27
2022-07-30T07:21:00.629Z,5.87
2022-07-30T07:23:41.771Z,5.47
2022-07-30T07:26:11.670Z,6.27
2022-07-30T07:28:41.025Z,5.57
2022-07-30T07:31:09.681Z,5.20
2022-07-30T07:33:38.544Z,5.33
2022-07-30T07:36:07.348Z,5.37
2022-07-30T07:38:36.902Z,5.77
2022-07-30T07:41:05.954Z,5.90
2022-07-30T07:43:34.071Z,4.93
2022-07-30T07:46:02.627Z,5.07
2022-07-30T07:48:31.030Z,5.00
2022-07-30T07:51:00.638Z,5.23
2022-07-30T07:53:29.459Z,5.67
2022-07-30T07:55:59.750Z,5.23
2022-07-30T07:58:28.199Z,4.20
2022-07-30T08:00:57.907Z,5.30
2022-07-30T08:03:26.118Z,4.60
2022-07-30T08:06:04.608Z,5.10
2022-07-30T08:08:36.667Z,5.73
2022-07-30T08:11:07.500Z,5.73
2022-07-30T08:13:51.217Z,4.77
2022-07-30T08:16:21.201Z,5.63
2022-07-30T08:18:49.452Z,5.27
2022-07-30T08:21:17.574Z,5.03
2022-07-30T08:23:45.815Z,5.43
2022-07-30T08:26:15.502Z,6.07
2022-07-30T08:28:45.813Z,4.60
2022-07-30T08:31:14.090Z,4.90
2022-07-30T08:33:42.205Z,4.63
2022-07-30T08:36:10.521Z,4.63
2022-07-30T08:38:39.561Z,4.80
2022-07-30T08:41:08.099Z,5.38
2022-07-30T08:43:38.413Z,5.05
2022-07-30T08:46:10.706Z,4.70
2022-07-30T08:48:39.262Z,4.50
2022-07-30T08:51:08.025Z,4.10
2022-07-30T08:53:36.763Z,4.97
2022-07-30T08:56:06.088Z,4.55
2022-07-30T08:58:35.508Z,4.50
2022-07-30T09:01:06.614Z,4.80
2022-07-30T09:03:35.191Z,4.10
2022-07-30T09:06:05.225Z,4.05
2022-07-30T09:08:33.703Z,4.80
2022-07-30T09:11:01.944Z,3.90
2022-07-30T09:13:34.532Z,4.38
2022-07-30T09:16:05.222Z,3.17
2022-07-30T09:18:35.725Z,4.85
2022-07-30T09:21:23.454Z,3.88
2022-07-30T09:23:59.452Z,3.67
2022-07-30T09:26:28.049Z,3.70
2022-07-30T09:28:56.482Z,4.78
2022-07-30T09:31:26.002Z,3.70
2022-07-30T09:33:54.194Z,3.40
2022-07-30T09:36:22.365Z,3.30
2022-07-30T09:38:52.669Z,3.55
2022-07-30T09:41:41.475Z,3.53
2022-07-30T09:44:09.790Z,3.75
2022-07-30T09:46:47.957Z,4.13
2022-07-30T09:49:17.837Z,3.92
2022-07-30T09:51:54.247Z,3.17
2022-07-30T09:54:26.090Z,3.53
2022-07-30T09:57:25.443Z,4.55
2022-07-30T09:59:55.781Z,3.70
2022-07-30T10:02:33.031Z,3.35
2022-07-30T10:05:14.170Z,3.05
2022-07-30T10:07:49.110Z,3.33
2022-07-30T10:10:21.769Z,3.30
2022-07-30T10:12:56.005Z,3.60
2022-07-30T10:15:26.521Z,3.55
2022-07-30T10:17:58.159Z,3.47
2022-07-30T10:20:27.358Z,3.50
2022-07-30T10:22:56.189Z,2.83
2022-07-30T10:25:27.878Z,2.97
2022-07-30T10:27:57.182Z,3.80
2022-07-30T10:30:28.248Z,3.00
2022-07-30T10:33:01.512Z,3.03
2022-07-30T10:35:34.980Z,2.63
2022-07-30T10:38:13.708Z,2.55
2022-07-30T10:40:48.884Z,2.22
2022-07-30T10:43:46.545Z,2.30
2022-07-30T10:46:27.485Z,2.22
2022-07-30T10:49:12.562Z,2.17
2022-07-30T10:51:49.040Z,2.35
2022-07-30T10:54:41.782Z,2.50
2022-07-30T10:57:14.978Z,2.40
2022-07-30T11:00:15.632Z,2.60
2022-07-30T11:03:15.847Z,2.78
2022-07-30T11:05:47.327Z,2.28
2022-07-30T11:08:48.265Z,2.33
2022-07-30T11:12:01.034Z,2.70
2022-07-30T11:15:07.297Z,3.28
2022-07-30T11:18:01.245Z,2.80
2022-07-30T11:20:29.934Z,2.90
2022-07-30T11:23:26.984Z,2.50
2022-07-30T11:25:55.923Z,2.65
2022-07-30T11:28:39.956Z,2.70
2022-07-30T11:31:36.970Z,2.40
2022-07-30T11:34:28.028Z,2.13
2022-07-30T11:37:22.115Z,2.40
2022-07-30T11:40:14.286Z,2.40
2022-07-30T11:42:43.657Z,2.38
2022-07-30T11:45:29.557Z,2.88
2022-07-30T11:48:01.269Z,2.83
2022-07-30T11:50:31.843Z,3.00
2022-07-30T11:53:02.172Z,3.15
2022-07-30T11:55:33.733Z,2.85
2022-07-30T11:58:03.741Z,2.67
2022-07-30T12:00:39.839Z,2.33
2022-07-30T12:03:15.743Z,2.88
2022-07-30T12:05:44.648Z,2.55
2022-07-30T12:08:31.431Z,2.33
2022-07-30T12:11:03.644Z,2.75
2022-07-30T12:13:44.081Z,2.42
2022-07-30T12:16:14.368Z,2.20
2022-07-30T12:18:43.004Z,2.10
2022-07-30T12:21:13.707Z,2.38
2022-07-30T12:23:43.538Z,2.38
2022-07-30T12:26:22.411Z,2.22
2022-07-30T12:28:50.877Z,2.00
2022-07-30T12:31:19.416Z,2.60
2022-07-30T12:33:47.708Z,2.22
2022-07-30T12:36:27.138Z,2.20
2022-07-30T12:38:56.677Z,2.10
2022-07-30T12:41:42.619Z,2.45
2022-07-30T12:44:11.092Z,2.65
2022-07-30T12:46:41.793Z,2.05
2022-07-30T12:49:22.259Z,1.92
2022-07-30T12:51:59.892Z,2.03
2022-07-30T12:54:29.455Z,1.95
2022-07-30T12:57:01.029Z,1.88
2022-07-30T12:59:31.040Z,2.00
2022-07-30T13:02:00.633Z,1.90
2022-07-30T13:04:29.330Z,1.70
2022-07-30T13:07:16.796Z,2.08
2022-07-30T13:09:44.850Z,1.67
2022-07-30T13:12:16.121Z,2.28
2022-07-30T13:14:44.526Z,1.70
2022-07-30T13:17:12.651Z,2.00
2022-07-30T13:19:40.825Z,1.70
2022-07-30T13:22:09.813Z,1.98
2022-07-30T13:24:39.296Z,1.65
2022-07-30T13:27:07.820Z,2.20
2022-07-30T13:29:37.441Z,2.15
2022-07-30T13:32:06.072Z,1.80
2022-07-30T13:34:34.145Z,1.83
2022-07-30T13:37:02.523Z,2.00
2022-07-30T13:39:30.793Z,2.10
2022-07-30T13:41:58.930Z,1.83
2022-07-30T13:44:27.001Z,1.70
2022-07-30T13:47:01.293Z,1.92
2022-07-30T13:49:29.913Z,2.10
2022-07-30T13:51:58.557Z,1.70
2022-07-30T13:54:26.662Z,2.25
2022-07-30T13:56:54.907Z,2.25
2022-07-30T13:59:23.014Z,2.10
2022-07-30T14:01:51.186Z,1.95
2022-07-30T14:04:20.670Z,2.00
2022-07-30T14:06:48.756Z,2.08
2022-07-30T14:09:17.177Z,2.47
2022-07-30T14:11:45.233Z,2.28
2022-07-30T14:14:13.333Z,2.15
2022-07-30T14:16:45.764Z,2.05
2022-07-30T14:19:23.930Z,1.70
2022-07-30T14:21:54.209Z,1.90
2022-07-30T14:24:22.530Z,1.73
2022-07-30T14:26:57.360Z,2.30
2022-07-30T14:29:26.568Z,1.95
2022-07-30T14:31:54.942Z,1.92
2022-07-30T14:34:23.083Z,2.00
2022-07-30T14:36:51.345Z,2.17
2022-07-30T14:39:21.173Z,1.90
2022-07-30T14:41:54.054Z,1.75
2022-07-30T14:44:23.961Z,0.30
2022-07-30T14:46:52.923Z,0.28
2022-07-30T14:49:22.678Z,0.13
2022-07-30T14:51:51.981Z,0.20
2022-07-30T14:54:21.790Z,0.17
2022-07-30T14:56:54.896Z,0.20
2022-07-30T14:59:26.635Z,0.28
2022-07-30T15:01:55.360Z,0.20
2022-07-30T15:04:24.047Z,0.10
2022-07-30T15:06:52.174Z,0.20
2022-07-30T15:09:21.689Z,0.20
2022-07-30T15:12:07.656Z,0.20
2022-07-30T15:14:36.710Z,0.20
2022-07-30T15:17:04.870Z,0.10
2022-07-30T15:19:33.541Z,0.20
2022-07-30T15:22:03.133Z,0.20
2022-07-30T15:24:33.438Z,0.20
2022-07-30T15:27:01.500Z,0.17
2022-07-30T15:29:30.237Z,0.17
2022-07-30T15:32:00.152Z,0.20
2022-07-30T15:34:28.935Z,0.20
2022-07-30T15:36:57.150Z,0.13
2022-07-30T15:39:25.269Z,0.28
2022-07-30T15:41:58.438Z,0.30
2022-07-30T15:44:27.562Z,0.20
2022-07-30T15:46:56.471Z,0.20
2022-07-30T15:49:24.641Z,0.10
2022-07-30T15:51:53.072Z,0.10
2022-07-30T15:54:24.003Z,0.20
2022-07-30T15:56:53.888Z,0.20
2022-07-30T15:59:23.665Z,0.20
2022-07-30T16:01:51.966Z,0.30
2022-07-30T16:04:20.620Z,0.30
2022-07-30T16:06:59.418Z,0.20
2022-07-30T16:09:27.799Z,0.10
2022-07-30T16:11:55.899Z,0.20
2022-07-30T16:14:25.437Z,0.28
2022-07-30T16:16:53.713Z,0.20
2022-07-30T16:19:21.836Z,0.17
2022-07-30T16:21:49.926Z,0.20
2022-07-30T16:24:18.118Z,0.10
2022-07-30T16:26:46.242Z,0.22
2022-07-30T16:29:14.448Z,0.15
2022-07-30T16:31:43.881Z,0.20
2022-07-30T16:34:12.035Z,0.40
2022-07-30T16:36:40.141Z,0.20
2022-07-30T16:39:08.396Z,0.30
2022-07-30T16:41:36.926Z,0.10
2022-07-30T16:44:05.849Z,0.30
2022-07-30T16:46:34.402Z,0.20
2022-07-30T16:49:04.014Z,0.30
2022-07-30T16:51:32.392Z,0.20
2022-07-30T16:54:00.483Z,0.20
2022-07-30T16:56:28.972Z,0.22
2022-07-30T16:58:57.068Z,0.20
2022-07-30T17:01:25.182Z,0.20
2022-07-30T17:03:53.300Z,0.20
2022-07-30T17:06:22.765Z,0.20
2022-07-30T17:08:50.848Z,0.22
2022-07-30T17:11:47.464Z,0.20
2022-07-30T17:14:07.638Z,0.30
2022-07-30T17:16:35.727Z,0.30
2022-07-30T17:19:09.201Z,0.20
2022-07-30T17:21:39.271Z,0.10
2022-07-30T17:24:11.401Z,0.30
2022-07-30T17:26:42.939Z,0.20
2022-07-30T17:29:14.086Z,0.20
2022-07-30T17:31:44.194Z,0.15
2022-07-30T17:34:14.744Z,0.20
2022-07-30T17:36:51.809Z,0.30
2022-07-30T17:40:19.641Z,0.30
2022-07-30T17:42:10.045Z,0.20
2022-07-30T17:44:39.345Z,0.17
2022-07-30T17:47:12.323Z,0.20
2022-07-30T17:49:42.505Z,0.30
2022-07-30T17:52:12.100Z,0.10
2022-07-30T17:54:40.334Z,0.20
2022-07-30T17:57:08.835Z,0.13
2022-07-30T17:59:36.992Z,0.20
2022-07-30T18:02:05.987Z,0.30
2022-07-30T18:04:34.954Z,0.32
2022-07-30T18:07:03.321Z,0.20
2022-07-30T18:09:39.519Z,0.20
2022-07-30T18:12:08.768Z,0.10
2022-07-30T18:14:37.423Z,0.20
2022-07-30T18:17:05.700Z,0.10
2022-07-30T18:19:33.807Z,0.20
2022-07-30T18:22:02.212Z,0.15
2022-07-30T18:24:32.855Z,0.20
2022-07-30T18:27:00.929Z,0.13
2022-07-30T18:29:29.054Z,0.20
2022-07-30T18:31:57.163Z,0.10
2022-07-30T18:34:25.276Z,0.20
2022-07-30T18:36:53.485Z,0.28
2022-07-30T18:39:21.623Z,0.10
2022-07-30T18:41:51.065Z,0.20
2022-07-30T18:44:19.221Z,0.13
2022-07-30T18:46:47.351Z,0.22
2022-07-30T18:49:35.524Z,0.13
2022-07-30T18:52:04.183Z,0.10
2022-07-30T18:54:32.621Z,0.32
2022-07-30T18:57:02.248Z,0.10
2022-07-30T18:59:30.685Z,0.20
2022-07-30T19:01:58.797Z,0.20
2022-07-30T19:04:27.106Z,0.20
2022-07-30T19:06:55.391Z,0.10
2022-07-30T19:09:23.528Z,0.15
2022-07-30T19:11:51.654Z,0.10
2022-07-30T19:14:21.120Z,0.20
2022-07-30T19:16:49.279Z,0.20
2022-07-30T19:19:19.133Z,0.10
2022-07-30T19:21:47.348Z,0.20
2022-07-30T19:24:15.445Z,0.28
2022-07-30T19:26:44.477Z,0.10
2022-07-30T19:29:12.594Z,0.20
2022-07-30T19:31:42.401Z,0.20
2022-07-30T19:34:11.799Z,0.28
2022-07-30T19:36:40.164Z,0.20
2022-07-30T19:39:11.031Z,0.20
2022-07-30T19:41:44.117Z,0.20
2022-07-30T19:44:13.549Z,0.17
2022-07-30T19:46:51.614Z,0.20
2022-07-30T19:49:21.623Z,0.10
2022-07-30T19:52:10.133Z,0.30
2022-07-30T19:54:38.425Z,0.13
2022-07-30T19:57:06.696Z,0.20
2022-07-30T19:59:59.690Z,0.20
2022-07-30T20:02:26.983Z,0.28
2022-07-30T20:04:55.871Z,0.20
2022-07-30T20:07:27.480Z,0.28
2022-07-30T20:09:55.921Z,0.20
2022-07-30T20:12:26.884Z,0.20
2022-07-30T20:14:55.904Z,0.20
2022-07-30T20:17:27.474Z,0.20
2022-07-30T20:19:59.369Z,0.20
2022-07-30T20:22:30.218Z,0.30
2022-07-30T20:25:01.041Z,0.30
2022-07-30T20:30:25.289Z,0.20
2022-07-30T20:32:56.162Z,0.20
2022-07-30T20:35:26.736Z,0.30
2022-07-30T20:37:56.636Z,0.20
2022-07-30T20:40:27.929Z,0.10
2022-07-30T20:42:56.733Z,0.30
2022-07-30T20:45:40.436Z,0.30
2022-07-30T20:48:17.421Z,0.20
2022-07-30T20:50:55.239Z,0.10
2022-07-30T20:53:25.375Z,0.20
2022-07-30T20:56:07.118Z,0.40
2022-07-30T20:58:36.359Z,0.10
2022-07-30T21:01:06.053Z,0.30
2022-07-30T21:03:37.488Z,0.20
2022-07-30T21:06:06.982Z,0.30
2022-07-30T21:08:35.074Z,0.40
2022-07-30T21:11:04.421Z,0.30
2022-07-30T21:13:33.432Z,0.30
2022-07-30T21:16:03.292Z,0.30
2022-07-30T21:18:32.725Z,0.30
2022-07-30T21:21:05.485Z,0.30
2022-07-30T21:23:34.114Z,0.20
2022-07-30T21:26:05.768Z,0.20
2022-07-30T21:28:38.694Z,0.30
2022-07-30T21:31:08.439Z,0.20
2022-07-30T21:33:38.953Z,0.20
2022-07-30T21:36:10.456Z,0.30
2022-07-30T21:38:42.171Z,0.20
2022-07-30T21:41:13.806Z,0.20
2022-07-30T21:43:43.272Z,0.23
2022-07-30T21:46:12.059Z,0.30
2022-07-30T21:48:40.297Z,0.20
2022-07-30T21:51:11.813Z,0.30
2022-07-30T21:53:46.002Z,0.23
2022-07-30T21:56:16.445Z,0.20
2022-07-30T21:58:45.571Z,0.30
2022-07-30T22:01:21.777Z,0.20
2022-07-30T22:04:04.806Z,0.20
2022-07-30T22:06:41.114Z,0.13
2022-07-30T22:09:20.501Z,0.20
2022-07-30T22:12:02.963Z,0.20
2022-07-30T22:14:51.871Z,0.20
2022-07-30T22:17:23.602Z,0.20
2022-07-30T22:20:08.668Z,0.27
2022-07-30T22:22:42.538Z,0.20
2022-07-30T22:25:11.962Z,0.13
2022-07-30T22:27:56.242Z,0.10
2022-07-30T22:30:26.925Z,0.20
2022-07-30T22:33:08.451Z,0.20
2022-07-30T22:35:37.235Z,0.27
2022-07-30T22:38:07.083Z,0.40
2022-07-30T22:40:38.479Z,0.30
2022-07-30T22:43:09.520Z,0.20
2022-07-30T22:45:49.174Z,0.23
2022-07-30T22:48:19.239Z,0.20
2022-07-30T22:50:52.044Z,0.20
2022-07-30T22:54:11.327Z,0.20
2022-07-30T22:56:15.572Z,0.20
2022-07-30T22:58:44.640Z,0.20
2022-07-30T23:01:16.075Z,0.20
2022-07-30T23:03:44.272Z,0.10
2022-07-30T23:06:14.779Z,0.20
2022-07-30T23:08:45.824Z,0.20
2022-07-30T23:11:13.920Z,0.10
2022-07-30T23:12:18.034Z,0.20
2022-07-30T23:13:42.591Z,0.20
2022-07-30T23:16:10.837Z,0.27
2022-07-30T23:18:39.178Z,0.27
2022-07-30T23:21:07.273Z,0.20
2022-07-30T23:23:35.861Z,0.30
2022-07-30T23:26:05.755Z,0.30
2022-07-30T23:28:33.992Z,0.20
2022-07-30T23:31:03.511Z,0.30
2022-07-30T23:33:32.123Z,0.30
2022-07-30T23:36:01.093Z,0.30
2022-07-30T23:38:29.388Z,0.23
2022-07-30T23:41:01.205Z,0.23
2022-07-30T23:43:30.856Z,0.27
2022-07-30T23:45:59.164Z,0.20
2022-07-30T23:48:27.361Z,0.20
2022-07-30T23:50:55.594Z,0.20
2022-07-30T23:53:24.046Z,0.30
2022-07-30T23:55:52.826Z,0.30
2022-07-30T23:58:20.991Z,0.27
